Time;durP1;ratioP1;P1;durP2;ratioP2;P2;SDS_P1;SDS_P2;PMS_P1;PMS_P2;Temp;Humidity;BMP_temperature;BMP_pressure;BME280_temperature;BME280_humidity;BME280_pressure;Samples;Min_cycle;Max_cycle;Signal;HPM_P1;HPM_P2
2024/04/10 10:03:59;;;;;;;14.00;8.20;;;;;;;15.70;65.24;99522.48;102480;1295;636830;-77
2024/04/10 10:06:42;;;;;;;10.50;7.80;;;;;;;15.67;65.17;99525.31;104346;1273;96904;-78
2024/04/10 10:09:45;;;;;;;;;;;;;;;;;;;;;
2024/04/10 10:13:05;;;;;;;12.70;7.80;;;;;;;15.59;65.00;99522.84;107406;1263;108938;-76
2024/04/10 10:15:50;;;;;;;13.00;6.90;;;;;;;15.61;65.22;99525.36;104937;1261;96114;-78
2024/04/10 10:18:27;;;;;;;15.70;8.00;;;;;;;15.65;65.20;99535.49;103204;1256;2923321;-78
2024/04/10 10:21:30;;;;;;;12.60;6.60;;;;;;;15.62;65.11;99536.55;105836;1259;95266;-78
2024/04/10 10:24:28;;;;;;;;;;;;;;;;;;;;;
2024/04/10 10:27:25;;;;;;;12.00;6.90;;;;;;;15.65;65.13;99549.04;106972;1256;108483;-76
2024/04/10 10:30:31;;;;;;;11.10;6.50;;;;;;;15.68;65.22;99554.36;105932;1260;95275;-79
2024/04/10 10:33:36;;;;;;;12.90;6.80;;;;;;;15.72;65.18;99552.52;106590;1262;107082;-76
2024/04/10 10:36:10;;;;;;;13.70;7.90;;;;;;;15.78;65.17;99557.58;105664;1254;96684;-78
2024/04/10 10:38:45;;;;;;;14.60;7.40;;;;;;;15.79;64.99;99562.13;104974;1260;96687;-78
2024/04/10 10:41:23;;;;;;;13.00;7.50;;;;;;;15.79;64.93;99567.34;105456;1259;110987;-76
2024/04/10 10:44:00;;;;;;;14.30;7.20;;;;;;;15.79;64.97;99567.48;105240;1256;97829;-77
2024/04/10 10:47:04;;;;;;;11.60;5.90;;;;;;;15.84;64.96;99570.14;105386;1259;108807;-76
2024/04/10 10:50:00;;;;;;;;;;;;;;;15.91;65.08;99576.83;105388;1258;96600;-77
2024/04/10 10:52:42;;;;;;;11.80;6.30;;;;;;;15.94;64.91;99572.64;105100;1259;97822;-79
2024/04/10 10:55:27;;;;;;;8.70;5.90;;;;;;;15.92;64.82;99576.90;105305;1259;110342;-78
2024/04/10 10:58:15;;;;;;;10.00;6.40;;;;;;;15.90;64.80;99581.04;105387;1259;96626;-77
2024/04/10 11:01:26;;;;;;;9.30;5.80;;;;;;;15.88;64.77;99585.02;105826;1257;106876;-76
2024/04/10 11:04:35;;;;;;;;;;;;;;;;;;;;;
2024/04/10 11:07:24;;;;;;;11.70;5.90;;;;;;;15.95;64.69;99592.79;105084;1258;97941;-78
2024/04/10 11:10:49;;;;;;;8.10;5.50;;;;;;;16.02;64.73;99601.36;106110;1256;111283;-77
2024/04/10 11:14:03;;;;;;;8.60;5.90;;;;;;;16.02;64.66;99600.77;105684;1253;96706;-77
2024/04/10 11:17:15;;;;;;;;;;;;;;;;;;;;;
2024/04/10 11:20:05;;;;;;;7.70;5.40;;;;;;;16.07;64.64;99610.02;105704;1254;97921;-77
2024/04/10 11:22:40;;;;;;;10.20;6.20;;;;;;;16.11;64.52;99609.64;105130;1261;97728;-81
2024/04/10 11:25:51;;;;;;;11.50;5.00;;;;;;;16.17;64.52;99609.33;105458;1259;110441;-79
2024/04/10 11:28:38;;;;;;;;;;;;;;;16.21;64.48;99614.71;105600;1256;96703;-77
2024/04/10 11:31:16;;;;;;;8.90;5.20;;;;;;;16.18;64.27;99614.08;105209;1257;109087;-77
2024/04/10 11:33:54;;;;;;;9.50;6.70;;;;;;;16.18;64.24;99614.77;105236;1259;96681;-77
2024/04/10 11:36:51;;;;;;;11.80;5.90;;;;;;;16.17;64.26;99621.50;105719;1262;96726;-77
2024/04/10 11:39:24;;;;;;;10.80;6.50;;;;;;;16.14;64.29;99622.42;105498;1257;111289;-76
2024/04/10 11:41:58;;;;;;;11.60;6.60;;;;;;;16.16;64.30;99623.72;105294;1257;97930;-78
2024/04/10 11:44:59;;;;;;;9.90;6.70;;;;;;;16.15;64.17;99626.86;105211;1254;108035;-77
2024/04/10 11:47:52;;;;;;;10.20;6.00;;;;;;;16.10;64.08;99627.28;106426;1254;96749;-78
2024/04/10 11:50:54;;;;;;;11.30;5.90;;;;;;;16.08;64.11;99627.42;106204;1253;96678;-78
2024/04/10 11:53:32;;;;;;;11.60;6.20;;;;;;;16.11;64.04;99633.11;105125;1256;110439;-79
2024/04/10 11:56:05;;;;;;;8.70;5.50;;;;;;;16.13;63.96;99638.46;106863;1260;96690;-77
2024/04/10 11:58:40;;;;;;;9.40;5.80;;;;;;;16.17;64.24;99637.63;105210;1261;107822;-78
2024/04/10 12:01:48;;;;;;;9.50;6.10;;;;;;;16.24;63.84;99639.28;103084;1288;636838;-78
2024/04/10 12:04:34;;;;;;;7.50;5.40;;;;;;;16.17;63.84;99644.02;104816;1267;95354;-78
2024/04/10 12:10:43;;;;;;;9.50;5.40;;;;;;;16.12;63.78;99641.96;105655;1261;108757;-76
2024/04/10 12:13:28;;;;;;;8.50;5.30;;;;;;;16.12;63.71;99642.13;104523;1263;96306;-77
2024/04/10 12:16:26;;;;;;;9.70;5.80;;;;;;;16.13;63.83;99644.95;105068;1258;496216;-79
2024/04/10 12:19:13;;;;;;;11.20;6.10;;;;;;;16.15;63.71;99650.06;105662;1258;95303;-76
2024/04/10 12:26:04;;;;;;;11.40;5.90;;;;;;;16.14;63.68;99648.95;105145;1260;109101;-77
2024/04/10 12:29:48;;;;;;;10.30;6.20;;;;;;;16.09;63.67;99652.59;105550;1258;95490;-75
2024/04/10 12:33:07;;;;;;;12.20;6.00;;;;;;;16.07;63.79;99652.76;105596;1262;106891;-78
2024/04/10 12:39:38;;;;;;;9.70;6.50;;;;;;;16.04;63.44;99662.16;106163;1260;96687;-77
2024/04/10 12:43:06;;;;;;;12.70;6.10;;;;;;;16.05;63.56;99667.41;102625;1291;647201;-77
2024/04/10 12:46:21;;;;;;;;;;;;;;;;;;;;;
2024/04/10 12:48:51;;;;;;;15.30;7.10;;;;;;;16.00;63.43;99671.44;104852;1263;95252;-76
2024/04/10 12:52:00;;;;;;;12.20;7.00;;;;;;;15.96;63.48;99670.71;105847;1261;108760;-76
2024/04/10 12:54:35;;;;;;;11.60;7.80;;;;;;;15.91;63.39;99675.95;104860;1265;95870;-76
2024/04/10 12:57:20;;;;;;;10.60;7.30;;;;;;;15.86;63.45;99672.81;103598;1258;3066181;-76
2024/04/10 12:59:53;;;;;;;11.50;7.90;;;;;;;15.82;63.36;99674.88;105161;1253;95251;-76
2024/04/10 13:02:42;;;;;;;9.60;7.10;;;;;;;15.79;63.38;99679.63;105354;1261;95325;-76
2024/04/10 13:05:30;;;;;;;13.50;7.00;;;;;;;15.76;63.50;99675.91;105205;1260;108828;-76
2024/04/10 13:08:14;;;;;;;13.70;7.30;;;;;;;15.77;63.47;99681.57;105126;1267;95486;-76
2024/04/10 13:14:07;;;;;;;10.60;6.80;;;;;;;15.73;63.61;99688.65;105891;1259;96608;-82
2024/04/10 13:17:00;;;;;;;11.50;7.30;;;;;;;15.73;63.52;99698.55;106146;1259;96605;-76
2024/04/10 13:22:56;;;;;;;15.10;7.70;;;;;;;15.73;63.60;99703.16;105126;1259;97528;-80
2024/04/10 13:25:42;;;;;;;15.90;7.30;;;;;;;15.73;63.56;99705.13;107147;1256;108134;-77
2024/04/10 13:29:01;;;;;;;9.90;6.60;;;;;;;15.73;63.57;99709.20;104884;1258;96601;-78
2024/04/10 13:48:35;;;;;;;;;;;;;;;;;;;;;
2024/04/10 13:51:53;;;;;;;10.20;6.50;;;;;;;15.77;63.63;99725.36;104819;1274;95346;-78
2024/04/10 13:55:01;;;;;;;10.20;6.30;;;;;;;15.73;63.69;99730.69;105768;1266;95405;-76
2024/04/10 13:57:59;;;;;;;10.90;6.30;;;;;;;15.72;63.81;99730.61;108369;1257;108559;-77
2024/04/10 14:01:46;;;;;;;10.50;6.10;;;;;;;15.72;63.72;99733.99;103954;1253;5912751;-77
2024/04/10 14:04:49;;;;;;;;;;;;;;;;;;;;;
2024/04/10 14:07:26;;;;;;;8.90;5.00;;;;;;;15.79;63.71;99741.13;108499;1258;93559;-76
2024/04/10 14:10:54;;;;;;;;;;;;;;;;;;;;;
2024/04/10 14:13:56;;;;;;;7.50;4.90;;;;;;;15.84;63.83;99747.86;108659;1254;108888;-76
2024/04/10 14:17:30;;;;;;;;;;;;;;;;;;;;;
2024/04/10 14:34:20;;;;;;;12.80;7.40;;;;;;;16.17;63.38;99764.27;103678;1282;650171;-78
2024/04/10 14:37:09;;;;;;;;;;;;;;;;;;;;;
2024/04/10 14:39:56;;;;;;;10.10;5.10;;;;;;;16.00;63.41;99766.79;105281;1263;95166;-76
2024/04/10 14:42:42;;;;;;;7.70;5.40;;;;;;;15.96;63.25;99771.78;105310;1265;107200;-76
2024/04/10 14:46:13;;;;;;;7.20;4.40;;;;;;;15.89;63.26;99774.11;106497;1263;96240;-84
